Lafayette, Ohio
Current Conditions -  °F | °C
As of 8:53 AM on Thursday 29 Jan 2015 (Local Time) from KAOH Reporting Station
Broken Clouds Broken Clouds  
Wind Chill: 30°   Ceiling: 7500
Heat Index: 39°   Visibility: 10mi
Dew Point: 29°   Wind: 16mph
Humidity: 67%   Direction: 190°S
Pressure: 29.79"   Gusts: 28mph
Location:  40.76°N, 83.95°W
Report Text: KAOH 291353Z AUTO 19014G24KT 10SM FEW049 BKN075 04/M02 A2979 RMK AO2 PK WND 20026/1321 SLP095 T00391017
Loading
Personal Weather Stations






























Interactive Weather Map New forecast layout! Learn more

10-Day Weather Forecast

Advertisements
Track Severe Weather on mobile